Time,TemperatureF,DewpointF,PressureIn,WindDirection,WindDirectionDegrees,WindSpeedMPH,WindSpeedGustMPH,Humidity,HourlyPrecipIn,Conditions,Clouds,dailyrainin,SoftwareType,DateUTC
2013-09-12 00:01:00,70.9,68.1,29.93,West,270,3.8,5.4,91,0.26,,,0.00,WUHU21623XXSP,2013-09-12 04:01:00,
2013-09-12 00:02:00,70.9,68.1,29.93,WNW,292,0.0,5.4,91,0.26,,,0.00,WUHU21623XXSP,2013-09-12 04:02:00,
2013-09-12 00:07:00,70.5,67.8,29.94,NW,315,0.0,5.1,91,0.26,,,0.00,WUHU21623XXSP,2013-09-12 04:07:00,
2013-09-12 00:12:00,70.3,67.6,29.94,NW,315,0.0,2.0,91,0.26,,,0.00,WUHU21623XXSP,2013-09-12 04:12:00,
2013-09-12 00:17:00,70.2,67.4,29.94,NW,315,0.0,0.0,91,0.26,,,0.00,WUHU21623XXSP,2013-09-12 04:17:00,
2013-09-12 00:22:00,70.0,67.2,29.94,West,270,0.0,0.0,91,0.20,,,0.00,WUHU21623XXSP,2013-09-12 04:22:00,
2013-09-12 00:27:00,69.8,67.0,29.93,West,270,0.0,0.0,91,0.12,,,0.00,WUHU21623XXSP,2013-09-12 04:27:00,
2013-09-12 00:32:00,69.6,66.9,29.93,West,270,0.0,0.0,91,0.10,,,0.00,WUHU21623XXSP,2013-09-12 04:32:00,
2013-09-12 00:37:00,69.6,66.9,29.93,West,270,0.0,0.0,91,0.02,,,0.00,WUHU21623XXSP,2013-09-12 04:37:00,
2013-09-12 00:42:00,69.4,66.7,29.93,SW,225,0.0,6.0,91,0.02,,,0.00,WUHU21623XXSP,2013-09-12 04:42:00,
2013-09-12 00:47:00,69.4,66.7,29.93,WSW,247,0.0,6.0,91,0.00,,,0.00,WUHU21623XXSP,2013-09-12 04:47:00,
2013-09-12 00:52:00,69.3,66.5,29.93,SSW,202,0.0,4.0,91,0.00,,,0.00,WUHU21623XXSP,2013-09-12 04:52:00,
2013-09-12 00:57:00,69.1,66.3,29.92,SSW,202,0.0,4.0,91,0.00,,,0.00,WUHU21623XXSP,2013-09-12 04:57:00,
2013-09-12 01:02:00,69.1,66.3,29.91,SSW,202,0.0,2.7,91,0.00,,,0.00,WUHU21623XXSP,2013-09-12 05:02:00,
2013-09-12 01:07:00,68.9,66.1,29.90,South,180,0.0,5.8,91,0.00,,,0.00,WUHU21623XXSP,2013-09-12 05:07:00,
2013-09-12 01:12:00,68.9,66.5,29.89,South,180,0.0,5.8,92,0.00,,,0.00,WUHU21623XXSP,2013-09-12 05:12:00,
2013-09-12 01:17:00,68.7,66.3,29.88,South,180,5.6,5.6,92,0.00,,,0.00,WUHU21623XXSP,2013-09-12 05:17:00,
2013-09-12 01:22:00,68.7,66.3,29.89,South,180,0.0,5.6,92,0.00,,,0.00,WUHU21623XXSP,2013-09-12 05:22:00,
2013-09-12 01:27:00,68.7,66.3,29.88,South,180,0.0,5.4,92,0.00,,,0.00,WUHU21623XXSP,2013-09-12 05:27:00,
2013-09-12 01:32:00,68.5,66.1,29.89,SSW,202,3.1,8.1,92,0.00,,,0.00,WUHU21623XXSP,2013-09-12 05:32:00,
2013-09-12 01:37:00,68.5,66.1,29.89,SSW,202,0.0,8.1,92,0.00,,,0.00,WUHU21623XXSP,2013-09-12 05:37:00,
2013-09-12 01:42:00,68.4,65.9,29.89,SSW,202,2.5,8.9,92,0.00,,,0.00,WUHU21623XXSP,2013-09-12 05:42:00,
2013-09-12 01:46:00,68.4,65.9,29.89,SSW,202,0.0,8.9,92,0.00,,,0.00,WUHU21623XXSP,2013-09-12 05:46:00,
2013-09-12 01:51:00,68.4,65.9,29.88,SSW,202,2.0,6.0,92,0.00,,,0.00,WUHU21623XXSP,2013-09-12 05:51:00,
2013-09-12 01:57:00,68.4,65.9,29.88,South,180,0.0,5.4,92,0.00,,,0.00,WUHU21623XXSP,2013-09-12 05:57:00,
2013-09-12 02:02:00,68.4,65.9,29.87,South,180,0.0,5.4,92,0.00,,,0.00,WUHU21623XXSP,2013-09-12 06:02:00,
2013-09-12 02:06:00,68.2,65.7,29.87,South,180,0.0,0.0,92,0.00,,,0.00,WUHU21623XXSP,2013-09-12 06:06:00,
2013-09-12 02:11:00,68.2,65.7,29.87,South,180,0.0,0.0,92,0.00,,,0.00,WUHU21623XXSP,2013-09-12 06:11:00,
2013-09-12 02:16:00,68.2,66.0,29.87,South,180,0.0,0.0,93,0.00,,,0.00,WUHU21623XXSP,2013-09-12 06:16:00,
2013-09-12 02:21:00,68.0,65.9,29.87,South,180,0.0,2.5,93,0.00,,,0.00,WUHU21623XXSP,2013-09-12 06:21:00,
2013-09-12 02:26:00,68.2,66.0,29.87,South,180,0.0,2.5,93,0.00,,,0.00,WUHU21623XXSP,2013-09-12 06:26:00,
2013-09-12 02:31:00,68.0,65.9,29.87,SSW,202,0.0,5.6,93,0.00,,,0.00,WUHU21623XXSP,2013-09-12 06:31:00,
2013-09-12 02:36:00,67.8,65.7,29.87,SSW,202,0.0,5.6,93,0.00,,,0.00,WUHU21623XXSP,2013-09-12 06:36:00,
2013-09-12 02:41:00,68.0,65.9,29.87,SSW,202,0.0,0.7,93,0.00,,,0.00,WUHU21623XXSP,2013-09-12 06:41:00,
2013-09-12 02:46:00,67.8,65.7,29.87,SSW,202,0.0,0.0,93,0.00,,,0.00,WUHU21623XXSP,2013-09-12 06:46:00,
2013-09-12 02:51:00,68.0,65.9,29.87,SW,225,0.0,6.5,93,0.00,,,0.00,WUHU21623XXSP,2013-09-12 06:51:00,
2013-09-12 02:56:00,68.2,66.0,29.87,SW,225,0.0,6.5,93,0.00,,,0.00,WUHU21623XXSP,2013-09-12 06:56:00,
2013-09-12 03:01:00,68.2,66.0,29.87,SW,225,0.0,7.8,93,0.00,,,0.00,WUHU21623XXSP,2013-09-12 07:01:00,
2013-09-12 03:06:00,68.2,66.0,29.86,SSW,202,0.0,7.8,93,0.00,,,0.00,WUHU21623XXSP,2013-09-12 07:06:00,
2013-09-12 03:11:00,68.4,66.2,29.86,SSW,202,0.0,8.1,93,0.00,,,0.00,WUHU21623XXSP,2013-09-12 07:11:00,
2013-09-12 03:16:00,68.4,66.2,29.85,SW,225,0.0,8.1,93,0.00,,,0.00,WUHU21623XXSP,2013-09-12 07:16:00,
2013-09-12 03:21:00,68.4,66.2,29.85,SSW,202,2.9,5.1,93,0.00,,,0.00,WUHU21623XXSP,2013-09-12 07:21:00,
2013-09-12 03:26:00,68.4,66.2,29.85,West,270,0.0,6.5,93,0.00,,,0.00,WUHU21623XXSP,2013-09-12 07:26:00,
2013-09-12 03:31:00,68.4,66.2,29.85,SSW,202,4.9,7.6,93,0.00,,,0.00,WUHU21623XXSP,2013-09-12 07:31:00,
2013-09-12 03:36:00,68.4,66.2,29.85,SSW,202,2.7,7.6,93,0.00,,,0.00,WUHU21623XXSP,2013-09-12 07:36:00,
2013-09-12 03:41:00,68.5,66.4,29.85,SW,225,6.0,10.5,93,0.00,,,0.00,WUHU21623XXSP,2013-09-12 07:41:00,
2013-09-12 03:46:00,68.5,66.4,29.85,SW,225,6.5,10.5,93,0.00,,,0.00,WUHU21623XXSP,2013-09-12 07:46:00,
2013-09-12 03:51:00,68.5,66.4,29.84,SW,225,0.0,8.3,93,0.00,,,0.00,WUHU21623XXSP,2013-09-12 07:51:00,
2013-09-12 03:56:00,68.5,66.4,29.84,SW,225,4.9,8.3,93,0.00,,,0.00,WUHU21623XXSP,2013-09-12 07:56:00,
2013-09-12 04:01:00,68.5,66.4,29.84,SSW,202,4.0,7.4,93,0.00,,,0.00,WUHU21623XXSP,2013-09-12 08:01:00,
2013-09-12 04:06:00,68.4,66.2,29.84,SSW,202,0.0,7.4,93,0.00,,,0.00,WUHU21623XXSP,2013-09-12 08:06:00,
2013-09-12 04:11:00,68.4,66.2,29.84,SSW,202,0.0,6.5,93,0.00,,,0.00,WUHU21623XXSP,2013-09-12 08:11:00,
2013-09-12 04:16:00,68.4,66.2,29.84,SW,225,3.4,4.3,93,0.00,,,0.00,WUHU21623XXSP,2013-09-12 08:16:00,
2013-09-12 04:21:00,68.4,66.2,29.84,SSW,202,0.0,4.5,93,0.00,,,0.00,WUHU21623XXSP,2013-09-12 08:21:00,
2013-09-12 04:26:00,68.5,66.4,29.85,SW,225,0.0,4.5,93,0.00,,,0.00,WUHU21623XXSP,2013-09-12 08:26:00,
2013-09-12 04:31:00,68.7,66.6,29.85,WSW,247,8.1,8.7,93,0.00,,,0.00,WUHU21623XXSP,2013-09-12 08:31:00,
2013-09-12 04:36:00,68.7,66.6,29.85,SW,225,4.5,8.7,93,0.00,,,0.00,WUHU21623XXSP,2013-09-12 08:36:00,
2013-09-12 04:41:00,68.9,66.8,29.84,SW,225,0.0,8.1,93,0.00,,,0.00,WUHU21623XXSP,2013-09-12 08:41:00,
2013-09-12 04:46:00,69.1,66.9,29.84,WSW,247,4.3,7.8,93,0.00,,,0.00,WUHU21623XXSP,2013-09-12 08:46:00,
2013-09-12 04:51:00,69.1,66.6,29.84,WSW,247,0.0,10.1,92,0.00,,,0.00,WUHU21623XXSP,2013-09-12 08:51:00,
2013-09-12 04:56:00,69.1,66.6,29.84,West,270,4.5,10.1,92,0.00,,,0.00,WUHU21623XXSP,2013-09-12 08:56:00,
2013-09-12 05:01:00,69.3,66.8,29.84,West,270,1.1,5.8,92,0.00,,,0.00,WUHU21623XXSP,2013-09-12 09:01:00,
2013-09-12 05:06:00,69.3,66.8,29.84,WNW,292,4.5,7.4,92,0.00,,,0.00,WUHU21623XXSP,2013-09-12 09:06:00,
2013-09-12 05:11:00,69.3,66.8,29.84,West,270,0.0,7.4,92,0.00,,,0.00,WUHU21623XXSP,2013-09-12 09:11:00,
2013-09-12 05:16:00,69.3,66.8,29.84,West,270,0.0,5.4,92,0.00,,,0.00,WUHU21623XXSP,2013-09-12 09:16:00,
2013-09-12 05:21:00,69.3,66.8,29.84,SW,225,0.0,5.4,92,0.00,,,0.00,WUHU21623XXSP,2013-09-12 09:21:00,
2013-09-12 05:26:00,69.3,66.8,29.85,West,270,0.0,4.9,92,0.00,,,0.00,WUHU21623XXSP,2013-09-12 09:26:00,
2013-09-12 05:31:00,69.3,66.5,29.85,West,270,0.0,0.0,91,0.00,,,0.00,WUHU21623XXSP,2013-09-12 09:31:00,
2013-09-12 05:36:00,69.4,66.7,29.85,West,270,0.0,0.0,91,0.00,,,0.00,WUHU21623XXSP,2013-09-12 09:36:00,
2013-09-12 05:41:00,69.4,66.7,29.85,West,270,0.0,2.9,91,0.00,,,0.00,WUHU21623XXSP,2013-09-12 09:41:00,
2013-09-12 05:46:00,69.4,66.7,29.84,WSW,247,2.7,2.9,91,0.00,,,0.00,WUHU21623XXSP,2013-09-12 09:46:00,
2013-09-12 05:51:00,69.4,66.7,29.85,SW,225,0.7,7.8,91,0.00,,,0.00,WUHU21623XXSP,2013-09-12 09:51:00,
2013-09-12 05:56:00,69.4,66.7,29.84,SW,225,0.0,7.8,91,0.00,,,0.00,WUHU21623XXSP,2013-09-12 09:56:00,
2013-09-12 06:01:00,69.6,66.9,29.84,SW,225,0.0,7.8,91,0.00,,,0.00,WUHU21623XXSP,2013-09-12 10:01:00,
2013-09-12 06:06:00,69.6,66.9,29.85,WSW,247,0.0,7.8,91,0.00,,,0.00,WUHU21623XXSP,2013-09-12 10:06:00,
2013-09-12 06:11:00,69.6,66.9,29.85,West,270,0.0,7.4,91,0.00,,,0.00,WUHU21623XXSP,2013-09-12 10:11:00,
2013-09-12 06:16:00,69.6,66.9,29.84,WSW,247,0.0,9.4,91,0.00,,,0.00,WUHU21623XXSP,2013-09-12 10:16:00,
2013-09-12 06:21:00,69.6,66.9,29.84,WSW,247,0.0,9.4,91,0.00,,,0.00,WUHU21623XXSP,2013-09-12 10:21:00,
2013-09-12 06:26:00,69.6,66.9,29.85,West,270,0.0,5.6,91,0.00,,,0.00,WUHU21623XXSP,2013-09-12 10:26:00,
2013-09-12 06:31:00,69.6,66.9,29.85,West,270,0.0,5.4,91,0.00,,,0.00,WUHU21623XXSP,2013-09-12 10:31:00,
2013-09-12 06:36:00,69.6,66.9,29.85,West,270,0.0,3.4,91,0.00,,,0.00,WUHU21623XXSP,2013-09-12 10:36:00,
2013-09-12 06:41:00,69.6,66.9,29.85,SW,225,0.0,5.8,91,0.00,,,0.00,WUHU21623XXSP,2013-09-12 10:41:00,
2013-09-12 06:46:00,69.6,66.9,29.85,SW,225,0.0,5.8,91,0.00,,,0.00,WUHU21623XXSP,2013-09-12 10:46:00,
2013-09-12 06:51:00,69.6,66.9,29.85,West,270,0.0,5.1,91,0.00,,,0.00,WUHU21623XXSP,2013-09-12 10:51:00,
2013-09-12 06:56:00,69.6,66.9,29.85,West,270,0.0,2.2,91,0.00,,,0.00,WUHU21623XXSP,2013-09-12 10:56:00,
2013-09-12 07:01:00,69.6,66.9,29.85,West,270,0.0,2.7,91,0.00,,,0.00,WUHU21623XXSP,2013-09-12 11:01:00,
2013-09-12 07:06:00,69.6,66.9,29.85,SW,225,0.0,3.6,91,0.00,,,0.00,WUHU21623XXSP,2013-09-12 11:06:00,
2013-09-12 07:11:00,69.6,66.9,29.85,WSW,247,1.8,6.0,91,0.00,,,0.00,WUHU21623XXSP,2013-09-12 11:11:00,
2013-09-12 07:16:00,69.6,66.9,29.85,WSW,247,0.0,6.0,91,0.00,,,0.00,WUHU21623XXSP,2013-09-12 11:16:00,
2013-09-12 07:21:00,69.6,66.9,29.85,WSW,247,0.0,4.0,91,0.00,,,0.00,WUHU21623XXSP,2013-09-12 11:21:00,
2013-09-12 07:26:00,69.6,66.9,29.85,WSW,247,0.0,4.0,91,0.00,,,0.00,WUHU21623XXSP,2013-09-12 11:26:00,
2013-09-12 07:31:00,69.6,66.9,29.85,WSW,247,0.0,3.6,91,0.00,,,0.00,WUHU21623XXSP,2013-09-12 11:31:00,
2013-09-12 07:36:00,69.6,66.9,29.85,WSW,247,0.0,3.6,91,0.00,,,0.00,WUHU21623XXSP,2013-09-12 11:36:00,
2013-09-12 07:41:00,69.6,66.9,29.85,West,270,0.0,0.0,91,0.00,,,0.00,WUHU21623XXSP,2013-09-12 11:41:00,
2013-09-12 07:46:00,69.6,66.9,29.85,SW,225,1.3,7.2,91,0.00,,,0.00,WUHU21623XXSP,2013-09-12 11:46:00,
2013-09-12 07:51:00,69.6,66.9,29.85,WNW,292,0.0,7.2,91,0.00,,,0.00,WUHU21623XXSP,2013-09-12 11:51:00,
2013-09-12 07:56:00,69.6,66.9,29.86,WNW,292,0.0,5.4,91,0.00,,,0.00,WUHU21623XXSP,2013-09-12 11:56:00,
2013-09-12 08:01:00,69.6,66.9,29.86,West,270,0.0,2.0,91,0.02,,,0.02,WUHU21623XXSP,2013-09-12 12:01:00,
2013-09-12 08:06:00,69.6,67.2,29.86,West,270,0.0,2.0,92,0.02,,,0.02,WUHU21623XXSP,2013-09-12 12:06:00,
2013-09-12 08:11:00,69.6,67.2,29.85,West,270,0.0,0.0,92,0.02,,,0.02,WUHU21623XXSP,2013-09-12 12:11:00,
2013-09-12 08:16:00,69.6,67.2,29.85,West,270,0.0,0.0,92,0.02,,,0.02,WUHU21623XXSP,2013-09-12 12:16:00,
2013-09-12 08:21:00,69.6,67.2,29.85,West,270,0.0,0.0,92,0.02,,,0.02,WUHU21623XXSP,2013-09-12 12:21:00,
2013-09-12 08:26:00,70.0,67.5,29.85,SSW,202,0.0,2.7,92,0.02,,,0.02,WUHU21623XXSP,2013-09-12 12:26:00,
2013-09-12 08:31:00,70.0,67.5,29.85,SSW,202,2.2,7.2,92,0.02,,,0.02,WUHU21623XXSP,2013-09-12 12:31:00,
2013-09-12 08:36:00,70.2,68.0,29.85,SW,225,0.0,7.2,93,0.02,,,0.02,WUHU21623XXSP,2013-09-12 12:36:00,
2013-09-12 08:41:00,70.2,68.0,29.85,West,270,0.0,0.0,93,0.02,,,0.02,WUHU21623XXSP,2013-09-12 12:41:00,
2013-09-12 08:46:00,70.3,68.2,29.84,SW,225,0.0,5.4,93,0.02,,,0.02,WUHU21623XXSP,2013-09-12 12:46:00,
2013-09-12 08:51:00,70.3,68.2,29.84,SSW,202,0.0,5.4,93,0.02,,,0.02,WUHU21623XXSP,2013-09-12 12:51:00,
2013-09-12 08:56:00,70.3,68.2,29.84,West,270,0.0,5.4,93,0.00,,,0.02,WUHU21623XXSP,2013-09-12 12:56:00,
2013-09-12 09:01:00,70.2,68.2,29.84,WSW,247,0.0,6.3,93,0.00,,,0.02,WUHU21623XXSP,2013-09-12 13:01:00,
2013-09-12 09:06:00,70.2,68.2,29.83,SW,225,0.0,7.6,93,0.00,,,0.02,WUHU21623XXSP,2013-09-12 13:06:00,
2013-09-12 09:11:00,70.2,68.0,29.84,SW,225,0.0,7.6,93,0.00,,,0.02,WUHU21623XXSP,2013-09-12 13:11:00,
2013-09-12 09:16:00,70.2,68.0,29.83,SW,225,0.0,7.6,93,0.00,,,0.02,WUHU21623XXSP,2013-09-12 13:16:00,
2013-09-12 09:21:00,70.2,68.0,29.83,WSW,247,0.0,6.7,93,0.00,,,0.02,WUHU21623XXSP,2013-09-12 13:21:00,
2013-09-12 09:26:00,70.2,68.0,29.84,WSW,247,0.0,6.3,93,0.00,,,0.02,WUHU21623XXSP,2013-09-12 13:26:00,
2013-09-12 09:31:00,70.3,68.2,29.83,SW,225,0.0,6.5,93,0.00,,,0.02,WUHU21623XXSP,2013-09-12 13:31:00,
2013-09-12 09:36:00,70.3,68.2,29.83,SW,225,0.0,6.5,93,0.00,,,0.02,WUHU21623XXSP,2013-09-12 13:36:00,
2013-09-12 09:41:00,70.3,68.2,29.84,West,270,0.0,3.4,93,0.00,,,0.02,WUHU21623XXSP,2013-09-12 13:41:00,
2013-09-12 09:46:00,70.5,68.4,29.84,WNW,292,0.0,3.4,93,0.00,,,0.02,WUHU21623XXSP,2013-09-12 13:46:00,
2013-09-12 09:51:00,70.7,68.6,29.83,WSW,247,0.0,4.3,93,0.00,,,0.02,WUHU21623XXSP,2013-09-12 13:51:00,
2013-09-12 09:56:00,70.9,68.7,29.83,SW,225,3.8,5.4,93,0.00,,,0.02,WUHU21623XXSP,2013-09-12 13:56:00,
2013-09-12 10:01:00,71.1,68.9,29.83,SSW,202,0.0,6.9,93,0.00,,,0.02,WUHU21623XXSP,2013-09-12 14:01:00,
2013-09-12 10:06:00,71.2,69.1,29.83,SSW,202,0.0,6.9,93,0.00,,,0.02,WUHU21623XXSP,2013-09-12 14:06:00,
2013-09-12 10:11:00,71.2,69.1,29.82,WSW,247,0.0,8.1,93,0.00,,,0.02,WUHU21623XXSP,2013-09-12 14:11:00,
2013-09-12 10:16:00,71.2,68.8,29.82,SW,225,0.0,8.1,92,0.00,,,0.02,WUHU21623XXSP,2013-09-12 14:16:00,
2013-09-12 10:21:00,71.2,68.8,29.83,WSW,247,0.0,5.6,92,0.00,,,0.02,WUHU21623XXSP,2013-09-12 14:21:00,
2013-09-12 10:26:00,70.9,68.4,29.83,SW,225,5.1,9.2,92,0.00,,,0.02,WUHU21623XXSP,2013-09-12 14:26:00,
2013-09-12 10:31:00,70.9,68.1,29.83,SW,225,6.7,9.2,91,0.00,,,0.02,WUHU21623XXSP,2013-09-12 14:31:00,
2013-09-12 10:36:00,70.9,67.8,29.83,WSW,247,0.0,8.3,90,0.00,,,0.02,WUHU21623XXSP,2013-09-12 14:36:00,
2013-09-12 10:41:00,70.7,67.6,29.83,SW,225,4.7,11.9,90,0.00,,,0.02,WUHU21623XXSP,2013-09-12 14:41:00,
2013-09-12 10:46:00,70.7,67.0,29.82,West,270,0.0,11.9,88,0.00,,,0.02,WUHU21623XXSP,2013-09-12 14:46:00,
2013-09-12 10:51:00,70.9,67.1,29.82,West,270,2.7,10.5,88,0.00,,,0.02,WUHU21623XXSP,2013-09-12 14:51:00,
2013-09-12 10:56:00,70.9,66.8,29.82,SW,225,0.0,7.8,87,0.00,,,0.02,WUHU21623XXSP,2013-09-12 14:56:00,
2013-09-12 11:01:00,70.9,66.8,29.82,WSW,247,9.2,9.2,87,0.00,,,0.02,WUHU21623XXSP,2013-09-12 15:01:00,
2013-09-12 11:06:00,70.9,66.8,29.82,SW,225,0.0,9.4,87,0.00,,,0.02,WUHU21623XXSP,2013-09-12 15:06:00,
2013-09-12 11:11:00,70.9,66.8,29.82,West,270,0.0,9.4,87,0.00,,,0.02,WUHU21623XXSP,2013-09-12 15:11:00,
2013-09-12 11:16:00,70.9,66.8,29.81,West,270,3.4,8.9,87,0.00,,,0.02,WUHU21623XXSP,2013-09-12 15:16:00,
2013-09-12 11:21:00,70.9,66.8,29.82,West,270,0.0,7.6,87,0.00,,,0.02,WUHU21623XXSP,2013-09-12 15:21:00,
2013-09-12 11:26:00,70.9,67.1,29.82,WNW,292,2.9,4.3,88,0.00,,,0.02,WUHU21623XXSP,2013-09-12 15:26:00,
2013-09-12 11:31:00,70.9,67.1,29.82,WNW,292,0.0,7.6,88,0.00,,,0.02,WUHU21623XXSP,2013-09-12 15:31:00,
2013-09-12 11:36:00,70.9,67.1,29.81,West,270,0.0,8.7,88,0.00,,,0.02,WUHU21623XXSP,2013-09-12 15:36:00,
2013-09-12 11:41:00,71.2,67.8,29.81,WSW,247,10.5,10.5,89,0.00,,,0.02,WUHU21623XXSP,2013-09-12 15:41:00,
2013-09-12 11:46:00,71.2,67.8,29.81,West,270,0.0,10.5,89,0.00,,,0.02,WUHU21623XXSP,2013-09-12 15:46:00,
2013-09-12 11:51:00,71.2,67.8,29.81,West,270,0.0,7.2,89,0.00,,,0.02,WUHU21623XXSP,2013-09-12 15:51:00,
2013-09-12 11:56:00,71.2,67.8,29.81,SW,225,4.0,7.2,89,0.00,,,0.02,WUHU21623XXSP,2013-09-12 15:56:00,
2013-09-12 12:01:00,71.2,67.8,29.81,WNW,292,5.4,7.2,89,0.00,,,0.02,WUHU21623XXSP,2013-09-12 16:01:00,
2013-09-12 12:06:00,71.2,67.8,29.81,SW,225,0.0,7.2,89,0.00,,,0.02,WUHU21623XXSP,2013-09-12 16:06:00,
2013-09-12 12:11:00,71.2,67.8,29.81,WSW,247,5.6,10.7,89,0.00,,,0.02,WUHU21623XXSP,2013-09-12 16:11:00,
2013-09-12 12:16:00,71.4,68.0,29.80,SW,225,6.7,10.7,89,0.00,,,0.02,WUHU21623XXSP,2013-09-12 16:16:00,
2013-09-12 12:21:00,71.4,67.7,29.80,SW,225,9.2,9.8,88,0.00,,,0.02,WUHU21623XXSP,2013-09-12 16:21:00,
2013-09-12 12:26:00,71.4,67.7,29.81,WSW,247,0.0,11.2,88,0.00,,,0.02,WUHU21623XXSP,2013-09-12 16:26:00,
2013-09-12 12:31:00,71.4,67.3,29.80,West,270,3.6,13.0,87,0.00,,,0.02,WUHU21623XXSP,2013-09-12 16:31:00,
2013-09-12 12:36:00,71.4,67.3,29.80,West,270,0.0,14.5,87,0.00,,,0.02,WUHU21623XXSP,2013-09-12 16:36:00,
2013-09-12 12:41:00,71.4,67.3,29.80,SW,225,0.9,14.5,87,0.00,,,0.02,WUHU21623XXSP,2013-09-12 16:41:00,
2013-09-12 12:46:00,71.4,67.3,29.80,SW,225,5.4,8.9,87,0.00,,,0.02,WUHU21623XXSP,2013-09-12 16:46:00,
2013-09-12 12:51:00,71.4,67.3,29.79,SSW,202,9.4,11.2,87,0.00,,,0.02,WUHU21623XXSP,2013-09-12 16:51:00,
2013-09-12 12:56:00,71.6,67.5,29.80,WSW,247,0.0,11.2,87,0.00,,,0.02,WUHU21623XXSP,2013-09-12 16:56:00,
2013-09-12 13:01:00,71.8,67.4,29.80,West,270,0.0,9.6,86,0.00,,,0.02,WUHU21623XXSP,2013-09-12 17:01:00,
2013-09-12 13:06:00,71.8,67.4,29.80,West,270,2.9,8.1,86,0.00,,,0.02,WUHU21623XXSP,2013-09-12 17:06:00,
2013-09-12 13:11:00,72.0,67.5,29.80,WNW,292,0.9,8.1,86,0.00,,,0.02,WUHU21623XXSP,2013-09-12 17:11:00,
2013-09-12 13:16:00,72.0,67.5,29.80,West,270,0.0,6.9,86,0.00,,,0.02,WUHU21623XXSP,2013-09-12 17:16:00,
2013-09-12 13:21:00,72.0,67.2,29.80,SW,225,2.7,6.9,85,0.00,,,0.02,WUHU21623XXSP,2013-09-12 17:21:00,
2013-09-12 13:26:00,72.0,67.2,29.79,SW,225,0.0,6.0,85,0.00,,,0.02,WUHU21623XXSP,2013-09-12 17:26:00,
2013-09-12 13:31:00,72.0,67.2,29.80,WNW,292,1.3,6.0,85,0.00,,,0.02,WUHU21623XXSP,2013-09-12 17:31:00,
2013-09-12 13:36:00,72.0,67.2,29.79,West,270,0.0,8.5,85,0.00,,,0.02,WUHU21623XXSP,2013-09-12 17:36:00,
2013-09-12 13:41:00,72.0,67.2,29.80,West,270,0.0,10.5,85,0.00,,,0.02,WUHU21623XXSP,2013-09-12 17:41:00,
2013-09-12 13:46:00,72.0,67.5,29.79,SW,225,0.0,10.5,86,0.00,,,0.02,WUHU21623XXSP,2013-09-12 17:46:00,
2013-09-12 13:51:00,72.1,67.7,29.79,WNW,292,0.0,7.6,86,0.00,,,0.02,WUHU21623XXSP,2013-09-12 17:51:00,
2013-09-12 13:56:00,72.3,67.9,29.79,WNW,292,0.0,7.6,86,0.00,,,0.02,WUHU21623XXSP,2013-09-12 17:56:00,
2013-09-12 14:01:00,72.7,67.9,29.79,West,270,0.0,5.8,85,0.00,,,0.02,WUHU21623XXSP,2013-09-12 18:01:00,
2013-09-12 14:06:00,73.4,68.6,29.78,WNW,292,7.2,9.4,85,0.00,,,0.02,WUHU21623XXSP,2013-09-12 18:06:00,
2013-09-12 14:11:00,74.5,69.0,29.78,West,270,0.0,9.4,83,0.00,,,0.02,WUHU21623XXSP,2013-09-12 18:11:00,
2013-09-12 14:16:00,74.8,69.0,29.78,West,270,0.0,10.7,82,0.00,,,0.02,WUHU21623XXSP,2013-09-12 18:16:00,
2013-09-12 14:21:00,75.0,68.5,29.78,WNW,292,0.0,10.7,80,0.00,,,0.02,WUHU21623XXSP,2013-09-12 18:21:00,
2013-09-12 14:26:00,74.8,68.4,29.78,SW,225,8.1,8.1,80,0.00,,,0.02,WUHU21623XXSP,2013-09-12 18:26:00,
2013-09-12 14:31:00,74.3,67.4,29.78,WNW,292,0.0,10.1,79,0.00,,,0.02,WUHU21623XXSP,2013-09-12 18:31:00,
2013-09-12 14:36:00,74.1,66.9,29.77,WNW,292,4.7,10.1,78,0.00,,,0.02,WUHU21623XXSP,2013-09-12 18:36:00,
2013-09-12 14:41:00,74.1,67.2,29.78,West,270,0.0,5.4,79,0.00,,,0.02,WUHU21623XXSP,2013-09-12 18:41:00,
2013-09-12 14:46:00,74.7,68.2,29.78,WNW,292,0.0,5.4,80,0.00,,,0.02,WUHU21623XXSP,2013-09-12 18:46:00,
2013-09-12 14:50:00,75.0,67.7,29.77,WNW,292,5.8,8.1,78,0.00,,,0.02,WUHU21623XXSP,2013-09-12 18:50:00,
2013-09-12 14:55:00,74.5,67.2,29.78,WNW,292,0.0,8.1,78,0.00,,,0.02,WUHU21623XXSP,2013-09-12 18:55:00,
2013-09-12 15:00:00,74.3,67.0,29.78,WSW,247,0.0,6.7,78,0.00,,,0.02,WUHU21623XXSP,2013-09-12 19:00:00,
2013-09-12 15:05:00,74.3,67.0,29.77,WNW,292,0.0,3.1,78,0.00,,,0.02,WUHU21623XXSP,2013-09-12 19:05:00,
2013-09-12 15:10:00,74.5,67.2,29.77,West,270,0.0,3.1,78,0.00,,,0.02,WUHU21623XXSP,2013-09-12 19:10:00,
2013-09-12 15:15:00,74.5,67.2,29.77,West,270,0.0,8.3,78,0.00,,,0.02,WUHU21623XXSP,2013-09-12 19:15:00,
2013-09-12 15:20:00,74.3,67.0,29.76,West,270,0.0,8.3,78,0.00,,,0.02,WUHU21623XXSP,2013-09-12 19:20:00,
2013-09-12 15:25:00,74.1,66.9,29.76,West,270,0.0,5.4,78,0.00,,,0.02,WUHU21623XXSP,2013-09-12 19:25:00,
2013-09-12 15:30:00,74.1,66.9,29.76,West,270,0.0,5.1,78,0.00,,,0.02,WUHU21623XXSP,2013-09-12 19:30:00,
2013-09-12 15:35:00,73.9,66.3,29.75,WSW,247,5.1,5.1,77,0.00,,,0.02,WUHU21623XXSP,2013-09-12 19:35:00,
2013-09-12 15:40:00,74.1,66.5,29.75,West,270,0.0,5.4,77,0.00,,,0.02,WUHU21623XXSP,2013-09-12 19:40:00,
2013-09-12 15:45:00,74.3,66.7,29.75,West,270,0.0,5.4,77,0.00,,,0.02,WUHU21623XXSP,2013-09-12 19:45:00,
2013-09-12 15:50:00,74.3,66.7,29.75,SSW,202,0.0,5.1,77,0.00,,,0.02,WUHU21623XXSP,2013-09-12 19:50:00,
2013-09-12 15:55:00,74.1,66.5,29.75,West,270,0.0,2.7,77,0.00,,,0.02,WUHU21623XXSP,2013-09-12 19:55:00,
2013-09-12 16:00:00,73.9,66.3,29.75,WSW,247,2.7,5.1,77,0.00,,,0.02,WUHU21623XXSP,2013-09-12 20:00:00,
2013-09-12 16:05:00,73.9,66.3,29.75,WNW,292,2.5,8.3,77,0.00,,,0.02,WUHU21623XXSP,2013-09-12 20:05:00,
2013-09-12 16:10:00,71.4,63.0,29.76,NW,315,16.6,21.5,75,0.00,,,0.02,WUHU21623XXSP,2013-09-12 20:10:00,
2013-09-12 16:15:00,67.8,61.1,29.76,NNW,337,9.4,21.5,79,0.06,,,0.06,WUHU21623XXSP,2013-09-12 20:15:00,
2013-09-12 16:20:00,65.3,60.3,29.75,North,0,3.1,16.8,84,0.26,,,0.28,WUHU21623XXSP,2013-09-12 20:20:00,
2013-09-12 16:25:00,64.4,60.2,29.77,North,0,0.0,16.8,86,0.31,,,0.32,WUHU21623XXSP,2013-09-12 20:25:00,
2013-09-12 16:30:00,64.2,60.7,29.76,NNW,337,0.0,11.0,88,0.33,,,0.34,WUHU21623XXSP,2013-09-12 20:30:00,
2013-09-12 16:35:00,64.2,61.0,29.76,NNW,337,0.0,6.3,89,0.33,,,0.34,WUHU21623XXSP,2013-09-12 20:35:00,
2013-09-12 16:40:00,64.2,61.0,29.76,NNW,337,0.0,3.1,89,0.35,,,0.36,WUHU21623XXSP,2013-09-12 20:40:00,
2013-09-12 16:45:00,64.2,61.3,29.76,NNW,337,0.0,0.0,90,0.35,,,0.36,WUHU21623XXSP,2013-09-12 20:45:00,
2013-09-12 16:50:00,64.2,61.3,29.76,NNW,337,0.0,2.9,90,0.35,,,0.36,WUHU21623XXSP,2013-09-12 20:50:00,
2013-09-12 16:55:00,64.6,61.7,29.75,NNW,337,0.0,2.9,90,0.35,,,0.36,WUHU21623XXSP,2013-09-12 20:55:00,
2013-09-12 17:00:00,64.6,61.7,29.75,NNW,337,0.0,0.0,90,0.35,,,0.36,WUHU21623XXSP,2013-09-12 21:00:00,
2013-09-12 17:05:00,64.9,62.3,29.75,NNW,337,0.0,0.0,91,0.35,,,0.36,WUHU21623XXSP,2013-09-12 21:05:00,
2013-09-12 17:10:00,65.1,62.5,29.75,NNW,337,0.0,0.0,91,0.35,,,0.36,WUHU21623XXSP,2013-09-12 21:10:00,
2013-09-12 17:15:00,65.3,62.6,29.75,NNW,337,0.0,0.0,91,0.26,,,0.36,WUHU21623XXSP,2013-09-12 21:15:00,
2013-09-12 17:20:00,65.7,63.2,29.75,NNW,337,4.5,4.5,92,0.04,,,0.36,WUHU21623XXSP,2013-09-12 21:20:00,
2013-09-12 17:25:00,65.8,63.4,29.75,NNW,337,0.0,4.5,92,0.04,,,0.36,WUHU21623XXSP,2013-09-12 21:25:00,
2013-09-12 17:30:00,66.0,63.6,29.75,NNW,337,0.0,8.7,92,0.02,,,0.36,WUHU21623XXSP,2013-09-12 21:30:00,
2013-09-12 17:35:00,66.2,64.1,29.75,NNW,337,0.0,8.7,93,0.02,,,0.36,WUHU21623XXSP,2013-09-12 21:35:00,
2013-09-12 17:40:00,66.7,64.3,29.75,North,0,0.0,8.3,92,0.00,,,0.36,WUHU21623XXSP,2013-09-12 21:40:00,
2013-09-12 17:45:00,67.8,65.4,29.75,North,0,0.0,8.3,92,0.00,,,0.36,WUHU21623XXSP,2013-09-12 21:45:00,
2013-09-12 17:50:00,67.6,64.9,29.75,NNW,337,0.0,8.1,91,0.00,,,0.36,WUHU21623XXSP,2013-09-12 21:50:00,
2013-09-12 17:55:00,68.5,65.3,29.75,NNW,337,0.0,8.1,90,0.00,,,0.36,WUHU21623XXSP,2013-09-12 21:55:00,
2013-09-12 18:00:00,69.1,65.7,29.75,NNW,337,5.6,7.2,89,0.00,,,0.36,WUHU21623XXSP,2013-09-12 22:00:00,
2013-09-12 18:05:00,69.1,64.3,29.74,NNW,337,9.6,10.7,85,0.00,,,0.36,WUHU21623XXSP,2013-09-12 22:05:00,
2013-09-12 18:10:00,68.9,63.8,29.75,North,0,2.7,11.0,84,0.00,,,0.36,WUHU21623XXSP,2013-09-12 22:10:00,
2013-09-12 18:15:00,68.9,63.5,29.75,North,0,5.8,11.0,83,0.00,,,0.36,WUHU21623XXSP,2013-09-12 22:15:00,
2013-09-12 18:20:00,68.7,63.3,29.75,NNW,337,0.0,9.4,83,0.00,,,0.36,WUHU21623XXSP,2013-09-12 22:20:00,
2013-09-12 18:25:00,69.1,63.7,29.75,North,0,3.8,8.3,83,0.00,,,0.36,WUHU21623XXSP,2013-09-12 22:25:00,
2013-09-12 18:30:00,69.1,63.3,29.75,North,0,0.0,8.3,82,0.00,,,0.36,WUHU21623XXSP,2013-09-12 22:30:00,
2013-09-12 18:35:00,69.1,63.3,29.75,NNW,337,0.0,7.4,82,0.00,,,0.36,WUHU21623XXSP,2013-09-12 22:35:00,
2013-09-12 18:40:00,69.1,63.3,29.76,NNW,337,1.6,6.5,82,0.00,,,0.36,WUHU21623XXSP,2013-09-12 22:40:00,
2013-09-12 18:45:00,69.1,63.0,29.75,NNW,337,0.0,7.4,81,0.00,,,0.36,WUHU21623XXSP,2013-09-12 22:45:00,
2013-09-12 18:50:00,68.7,62.7,29.76,NNW,337,3.4,7.4,81,0.00,,,0.36,WUHU21623XXSP,2013-09-12 22:50:00,
2013-09-12 18:55:00,67.8,61.8,29.76,North,0,0.0,6.7,81,0.00,,,0.36,WUHU21623XXSP,2013-09-12 22:55:00,
2013-09-12 19:00:00,67.1,61.4,29.76,NNW,337,0.0,6.7,82,0.00,,,0.36,WUHU21623XXSP,2013-09-12 23:00:00,
2013-09-12 19:05:00,66.6,60.9,29.76,North,0,7.2,7.2,82,0.00,,,0.36,WUHU21623XXSP,2013-09-12 23:05:00,
2013-09-12 19:10:00,66.0,60.7,29.76,North,0,0.0,7.2,83,0.00,,,0.36,WUHU21623XXSP,2013-09-12 23:10:00,
2013-09-12 19:15:00,65.5,60.2,29.76,North,0,0.0,2.5,83,0.00,,,0.36,WUHU21623XXSP,2013-09-12 23:15:00,
2013-09-12 19:20:00,65.1,59.8,29.76,North,0,0.0,2.5,83,0.00,,,0.36,WUHU21623XXSP,2013-09-12 23:20:00,
2013-09-12 19:25:00,64.6,59.6,29.76,North,0,0.0,0.0,84,0.00,,,0.36,WUHU21623XXSP,2013-09-12 23:25:00,
2013-09-12 19:30:00,64.2,59.3,29.76,North,0,0.0,0.0,84,0.00,,,0.36,WUHU21623XXSP,2013-09-12 23:30:00,
2013-09-12 19:35:00,63.7,58.7,29.76,North,0,0.0,0.0,84,0.00,,,0.36,WUHU21623XXSP,2013-09-12 23:35:00,
2013-09-12 19:40:00,63.3,58.7,29.76,North,0,0.0,0.0,85,0.00,,,0.36,WUHU21623XXSP,2013-09-12 23:40:00,
2013-09-12 19:45:00,62.8,58.5,29.76,North,0,0.0,0.0,86,0.00,,,0.36,WUHU21623XXSP,2013-09-12 23:45:00,
2013-09-12 19:50:00,62.4,57.8,29.76,North,0,0.0,0.0,85,0.00,,,0.36,WUHU21623XXSP,2013-09-12 23:50:00,
2013-09-12 19:55:00,62.2,58.0,29.76,North,0,0.0,0.0,86,0.00,,,0.36,WUHU21623XXSP,2013-09-12 23:55:00,
2013-09-12 20:00:00,61.9,58.0,29.77,North,0,0.0,0.0,87,0.00,,,0.36,WUHU21623XXSP,2013-09-13 00:00:00,
2013-09-12 20:05:00,61.5,57.6,29.77,North,0,0.0,0.0,87,0.00,,,0.36,WUHU21623XXSP,2013-09-13 00:05:00,
2013-09-12 20:10:00,61.3,57.8,29.77,North,0,0.0,0.0,88,0.00,,,0.36,WUHU21623XXSP,2013-09-13 00:10:00,
2013-09-12 20:15:00,61.2,57.6,29.77,North,0,0.0,0.0,88,0.00,,,0.36,WUHU21623XXSP,2013-09-13 00:15:00,
2013-09-12 20:20:00,61.0,57.4,29.77,North,0,0.0,0.0,88,0.00,,,0.36,WUHU21623XXSP,2013-09-13 00:20:00,
2013-09-12 20:25:00,60.8,57.3,29.78,North,0,0.0,0.0,88,0.00,,,0.36,WUHU21623XXSP,2013-09-13 00:25:00,
2013-09-12 20:30:00,60.6,57.1,29.78,North,0,0.0,0.0,88,0.00,,,0.36,WUHU21623XXSP,2013-09-13 00:30:00,
2013-09-12 20:35:00,60.4,57.2,29.78,North,0,0.0,0.0,89,0.00,,,0.36,WUHU21623XXSP,2013-09-13 00:35:00,
2013-09-12 20:40:00,60.1,56.9,29.78,North,0,0.0,0.0,89,0.00,,,0.36,WUHU21623XXSP,2013-09-13 00:40:00,
2013-09-12 20:45:00,60.1,56.9,29.78,North,0,0.0,0.0,89,0.00,,,0.36,WUHU21623XXSP,2013-09-13 00:45:00,
2013-09-12 20:50:00,60.1,56.9,29.78,North,0,0.0,0.0,89,0.00,,,0.36,WUHU21623XXSP,2013-09-13 00:50:00,
2013-09-12 20:55:00,60.1,57.2,29.78,North,0,0.0,0.0,90,0.00,,,0.36,WUHU21623XXSP,2013-09-13 00:55:00,
2013-09-12 21:00:00,60.1,57.2,29.79,North,0,0.0,0.0,90,0.00,,,0.36,WUHU21623XXSP,2013-09-13 01:00:00,
2013-09-12 21:05:00,60.4,57.6,29.79,North,0,0.0,0.0,90,0.00,,,0.36,WUHU21623XXSP,2013-09-13 01:05:00,
2013-09-12 21:10:00,60.4,57.6,29.79,North,0,0.0,0.0,90,0.00,,,0.36,WUHU21623XXSP,2013-09-13 01:10:00,
2013-09-12 21:15:00,60.4,57.6,29.79,North,0,0.0,0.0,90,0.00,,,0.36,WUHU21623XXSP,2013-09-13 01:15:00,
2013-09-12 21:20:00,60.4,57.6,29.79,North,0,0.0,2.0,90,0.00,,,0.36,WUHU21623XXSP,2013-09-13 01:20:00,
2013-09-12 21:25:00,60.4,57.6,29.79,North,0,0.0,2.0,90,0.00,,,0.36,WUHU21623XXSP,2013-09-13 01:25:00,
2013-09-12 21:30:00,60.4,57.6,29.79,North,0,0.0,2.9,90,0.00,,,0.36,WUHU21623XXSP,2013-09-13 01:30:00,
2013-09-12 21:35:00,60.6,57.7,29.79,North,0,0.0,2.9,90,0.00,,,0.36,WUHU21623XXSP,2013-09-13 01:35:00,
2013-09-12 21:40:00,60.6,57.7,29.79,North,0,4.0,5.8,90,0.00,,,0.36,WUHU21623XXSP,2013-09-13 01:40:00,
2013-09-12 21:45:00,60.6,57.7,29.79,North,0,6.0,6.5,90,0.00,,,0.36,WUHU21623XXSP,2013-09-13 01:45:00,
2013-09-12 21:50:00,60.6,57.4,29.79,NNW,337,1.8,7.8,89,0.00,,,0.36,WUHU21623XXSP,2013-09-13 01:50:00,
2013-09-12 21:55:00,60.6,57.4,29.80,North,0,0.0,7.8,89,0.00,,,0.36,WUHU21623XXSP,2013-09-13 01:55:00,
2013-09-12 22:00:00,60.6,57.4,29.80,NNW,337,2.7,8.1,89,0.00,,,0.36,WUHU21623XXSP,2013-09-13 02:00:00,
2013-09-12 22:05:00,60.6,57.1,29.80,North,0,0.0,8.1,88,0.00,,,0.36,WUHU21623XXSP,2013-09-13 02:05:00,
2013-09-12 22:10:00,60.6,57.1,29.80,North,0,1.8,7.6,88,0.00,,,0.36,WUHU21623XXSP,2013-09-13 02:10:00,
2013-09-12 22:15:00,60.4,56.6,29.80,North,0,0.0,5.1,87,0.00,,,0.36,WUHU21623XXSP,2013-09-13 02:15:00,
2013-09-12 22:20:00,60.3,56.4,29.80,North,0,0.0,2.7,87,0.00,,,0.36,WUHU21623XXSP,2013-09-13 02:20:00,
2013-09-12 22:25:00,59.9,56.0,29.79,North,0,0.0,2.7,87,0.00,,,0.36,WUHU21623XXSP,2013-09-13 02:25:00,
2013-09-12 22:30:00,59.5,55.7,29.79,North,0,0.0,0.0,87,0.00,,,0.36,WUHU21623XXSP,2013-09-13 02:30:00,
2013-09-12 22:35:00,59.4,55.8,29.79,North,0,0.0,0.0,88,0.00,,,0.36,WUHU21623XXSP,2013-09-13 02:35:00,
2013-09-12 22:40:00,58.8,55.3,29.79,North,0,0.0,0.0,88,0.00,,,0.36,WUHU21623XXSP,2013-09-13 02:40:00,
2013-09-12 22:45:00,58.8,55.3,29.79,North,0,0.0,0.0,88,0.00,,,0.36,WUHU21623XXSP,2013-09-13 02:45:00,
2013-09-12 22:50:00,58.8,55.3,29.78,North,0,0.0,0.0,88,0.00,,,0.36,WUHU21623XXSP,2013-09-13 02:50:00,
2013-09-12 22:55:00,58.8,55.3,29.78,North,0,0.0,0.0,88,0.00,,,0.36,WUHU21623XXSP,2013-09-13 02:55:00,
2013-09-12 23:00:00,58.6,55.4,29.77,North,0,0.0,0.0,89,0.00,,,0.36,WUHU21623XXSP,2013-09-13 03:00:00,
2013-09-12 23:05:00,58.3,55.1,29.78,North,0,0.0,3.6,89,0.00,,,0.36,WUHU21623XXSP,2013-09-13 03:05:00,
2013-09-12 23:10:00,58.1,54.9,29.78,North,0,0.0,3.6,89,0.00,,,0.36,WUHU21623XXSP,2013-09-13 03:10:00,
2013-09-12 23:15:00,57.9,54.7,29.78,North,0,0.0,2.9,89,0.00,,,0.36,WUHU21623XXSP,2013-09-13 03:15:00,
2013-09-12 23:20:00,58.1,54.9,29.78,North,0,0.0,2.9,89,0.00,,,0.36,WUHU21623XXSP,2013-09-13 03:20:00,
2013-09-12 23:25:00,58.1,54.9,29.78,North,0,0.0,2.9,89,0.00,,,0.36,WUHU21623XXSP,2013-09-13 03:25:00,
2013-09-12 23:30:00,58.3,55.1,29.78,North,0,0.0,3.6,89,0.00,,,0.36,WUHU21623XXSP,2013-09-13 03:30:00,
2013-09-12 23:35:00,58.3,55.1,29.77,North,0,4.7,5.6,89,0.00,,,0.36,WUHU21623XXSP,2013-09-13 03:35:00,
2013-09-12 23:40:00,58.6,55.4,29.77,North,0,6.0,6.9,89,0.00,,,0.36,WUHU21623XXSP,2013-09-13 03:40:00,
2013-09-12 23:45:00,58.8,55.3,29.77,North,0,0.0,6.9,88,0.00,,,0.36,WUHU21623XXSP,2013-09-13 03:45:00,
2013-09-12 23:50:00,58.8,55.3,29.77,North,0,2.0,5.4,88,0.00,,,0.36,WUHU21623XXSP,2013-09-13 03:50:00,
2013-09-12 23:55:00,58.8,55.3,29.77,North,0,0.0,5.4,88,0.00,,,0.36,WUHU21623XXSP,2013-09-13 03:55:00,